Oakland, CA (94613)

1:33 AM PDT on September 01, 2015 (GMT -0700)
Upper Laurel | | Change Station
CLOSE
Current Station
Personal Weather Station
Location: Oakland, CA
Elevation: 276 ft
Nearby Weather Stations

Elev 276 ft 37.79 °N, 122.19 °W | Updated 1 second ago

Partly Cloudy
Partly Cloudy
63.7 °F
Feels Like 63.7 °F
N
0.0
Wind Variable Wind from ENE
Gusts 0.0 mph

Today
High -- | Low -- °F
--% Chance of Precip.
Yesterday
High -- | Low -- °F
Precip. -- in
6:38 AM 7:38 PM
Waning Gibbous, 90% visible
Pressure 29.88 in
Visibility 10.0 miles
Clouds Few 1000 ft
Dew Point 55 °F
Humidity 73%
Rainfall Not available.
Snow Depth Not available.
UV 0 out of 12
Pollen 6.60 out of 12
Air Quality Not available.
Flu Activity Not available.
METAR KOAK 010753Z 24007KT 10SM FEW010 17/14 A2988 RMK AO2 SLP116 T01720139 402560156
Pressure 29.88 in
Visibility 10.0 miles
Clouds Few 1000 ft
Dew Point 55 °F
Humidity 73%
Rainfall Not available.
Snow Depth Not available.
UV 0 out of 12
Pollen 6.60 out of 12
Air Quality Not available.
Flu Activity Not available.
METAR KOAK 010753Z 24007KT 10SM FEW010 17/14 A2988 RMK AO2 SLP116 T01720139 402560156

10-Day Weather Forecast

×

Almanac

Astronomy

Sep. 01, 2015 Rise Set
Actual Time
Civil Twilight
Nautical Twilight
Astronomical Twilight
Moon
Length of Visible Light
Length of Day
Tomorrow will be .
, % of the Moon is Illuminated

Today's Extremes

State Highs State Lows

Community

WunderPhotos

Upload Photos

1,851,490 photos uploaded!

WunderBlogs® & News

Nearby

Air Quality

  Air Quality AQ Index Pollutant
Not available.

Snow Depth

Station Depth Elevation

Earthquake Activity

City Distance Mag. Time & Date
Minimum magnitude displayed is 2.5.

Coastal Water Temperatures

Place Temperature

Stations

Nearby Weather Stations

Station Location Temp. Windchill Dew Point Humidity Wind Precip. Elev Updated Type